createdAt,value
2023-02-15T00:01:24.492Z,100.00
2023-02-15T00:03:51.743Z,100.00
2023-02-15T00:06:18.693Z,100.00
2023-02-15T00:08:45.216Z,100.00
2023-02-15T00:11:16.579Z,100.00
2023-02-15T00:13:43.560Z,100.00
2023-02-15T00:16:12.594Z,100.00
2023-02-15T00:18:41.001Z,100.00
2023-02-15T00:21:10.284Z,100.00
2023-02-15T00:23:37.562Z,100.00
2023-02-15T00:26:12.126Z,100.00
2023-02-15T00:28:39.369Z,100.00
2023-02-15T00:31:11.286Z,100.00
2023-02-15T00:33:39.703Z,100.00
2023-02-15T00:36:09.454Z,100.00
2023-02-15T00:38:36.127Z,99.38
2023-02-15T00:41:04.934Z,98.97
2023-02-15T00:43:33.443Z,99.92
2023-02-15T00:46:01.947Z,98.95
2023-02-15T00:48:28.684Z,98.75
2023-02-15T00:50:59.665Z,99.98
2023-02-15T00:53:27.567Z,99.45
2023-02-15T00:55:54.316Z,99.59
2023-02-15T00:58:20.789Z,99.01
2023-02-15T01:00:48.669Z,98.92
2023-02-15T01:03:16.722Z,97.77
2023-02-15T01:05:43.323Z,97.25
2023-02-15T01:08:10.167Z,100.00
2023-02-15T01:10:37.165Z,99.72
2023-02-15T01:13:03.697Z,99.12
2023-02-15T01:15:30.247Z,99.30
2023-02-15T01:17:56.801Z,99.39
2023-02-15T01:20:26.312Z,99.47
2023-02-15T01:22:53.741Z,98.81
2023-02-15T01:25:22.781Z,99.78
2023-02-15T01:27:49.457Z,100.00
2023-02-15T01:30:16.766Z,99.50
2023-02-15T01:32:43.868Z,98.86
2023-02-15T01:35:11.410Z,99.03
2023-02-15T01:37:38.173Z,99.64
2023-02-15T01:40:07.530Z,99.60
2023-02-15T01:42:34.080Z,99.25
2023-02-15T01:45:22.614Z,99.58
2023-02-15T01:47:55.398Z,99.85
2023-02-15T01:50:38.563Z,98.94
2023-02-15T01:53:35.759Z,99.46
2023-02-15T01:56:07.777Z,99.77
2023-02-15T01:58:36.278Z,98.98
2023-02-15T02:01:04.920Z,98.68
2023-02-15T02:03:59.860Z,98.08
2023-02-15T02:06:27.724Z,98.67
2023-02-15T02:08:56.254Z,98.73
2023-02-15T02:11:23.429Z,98.78
2023-02-15T02:13:52.253Z,99.51
2023-02-15T02:16:26.464Z,100.00
2023-02-15T02:19:10.955Z,99.43
2023-02-15T02:22:01.857Z,99.13
2023-02-15T02:25:13.192Z,99.55
2023-02-15T02:27:45.517Z,99.05
2023-02-15T02:30:30.638Z,99.69
2023-02-15T02:33:09.576Z,98.63
2023-02-15T02:36:03.274Z,99.80
2023-02-15T02:38:45.151Z,100.00
2023-02-15T02:41:22.706Z,100.00
2023-02-15T02:44:13.955Z,100.00
2023-02-15T02:47:12.810Z,99.79
2023-02-15T02:49:41.531Z,100.00
2023-02-15T02:52:47.198Z,100.00
2023-02-15T02:55:57.093Z,100.00
2023-02-15T02:58:46.633Z,100.00
2023-02-15T03:01:25.159Z,100.00
2023-02-15T03:03:57.802Z,100.00
2023-02-15T03:06:34.349Z,100.00
2023-02-15T03:09:42.570Z,100.00
2023-02-15T03:12:15.228Z,100.00
2023-02-15T03:14:44.793Z,100.00
2023-02-15T03:17:13.571Z,100.00
2023-02-15T03:19:41.305Z,100.00
2023-02-15T03:22:16.034Z,100.00
2023-02-15T03:24:47.802Z,100.00
2023-02-15T03:27:23.309Z,100.00
2023-02-15T03:29:53.215Z,100.00
2023-02-15T03:32:20.605Z,100.00
2023-02-15T03:34:47.540Z,100.00
2023-02-15T03:37:41.840Z,100.00
2023-02-15T03:40:31.754Z,100.00
2023-02-15T03:43:10.163Z,100.00
2023-02-15T03:45:55.423Z,100.00
2023-02-15T03:48:34.407Z,100.00
2023-02-15T03:51:24.761Z,100.00
2023-02-15T03:53:52.105Z,100.00
2023-02-15T03:56:18.604Z,100.00
2023-02-15T03:59:03.766Z,100.00
2023-02-15T04:01:57.902Z,100.00
2023-02-15T04:04:27.337Z,100.00
2023-02-15T04:06:53.842Z,100.00
2023-02-15T04:09:39.029Z,100.00
2023-02-15T04:12:05.634Z,100.00
2023-02-15T04:14:50.662Z,100.00
2023-02-15T04:17:17.188Z,100.00
2023-02-15T04:20:02.189Z,100.00
2023-02-15T04:22:47.685Z,100.00
2023-02-15T04:25:14.274Z,100.00
2023-02-15T04:27:47.040Z,100.00
2023-02-15T04:30:15.396Z,100.00
2023-02-15T04:32:42.614Z,100.00
2023-02-15T04:35:10.208Z,100.00
2023-02-15T04:37:36.722Z,100.00
2023-02-15T04:40:04.983Z,100.00
2023-02-15T04:42:31.598Z,100.00
2023-02-15T04:44:58.130Z,100.00
2023-02-15T04:47:24.759Z,100.00
2023-02-15T04:49:51.251Z,100.00
2023-02-15T04:52:20.814Z,100.00
2023-02-15T04:54:47.488Z,100.00
2023-02-15T04:57:14.059Z,100.00
2023-02-15T04:59:40.592Z,100.00
2023-02-15T05:02:07.330Z,100.00
2023-02-15T05:04:33.784Z,100.00
2023-02-15T05:07:00.315Z,100.00
2023-02-15T05:09:26.868Z,100.00
2023-02-15T05:11:53.451Z,100.00
2023-02-15T05:14:20.084Z,100.00
2023-02-15T05:16:46.640Z,100.00
2023-02-15T05:19:13.149Z,100.00
2023-02-15T05:21:39.640Z,100.00
2023-02-15T05:24:26.363Z,100.00
2023-02-15T05:27:11.471Z,100.00
2023-02-15T05:29:37.951Z,100.00
2023-02-15T05:32:05.361Z,100.00
2023-02-15T05:34:32.035Z,100.00
2023-02-15T05:36:58.589Z,100.00
2023-02-15T05:39:25.131Z,100.00
2023-02-15T05:41:51.630Z,100.00
2023-02-15T05:44:18.169Z,100.00
2023-02-15T05:46:44.603Z,100.00
2023-02-15T05:49:11.104Z,100.00
2023-02-15T05:51:37.612Z,100.00
2023-02-15T05:54:04.159Z,100.00
2023-02-15T05:56:30.588Z,100.00
2023-02-15T05:58:57.090Z,100.00
2023-02-15T06:01:24.020Z,100.00
2023-02-15T06:03:50.964Z,100.00
2023-02-15T06:06:17.469Z,100.00
2023-02-15T06:08:44.209Z,100.00
2023-02-15T06:11:10.739Z,100.00
2023-02-15T06:13:38.977Z,100.00
2023-02-15T06:16:06.930Z,100.00
2023-02-15T06:18:33.614Z,100.00
2023-02-15T06:21:00.129Z,100.00
2023-02-15T06:23:26.669Z,100.00
2023-02-15T06:25:53.177Z,100.00
2023-02-15T06:28:19.612Z,100.00
2023-02-15T06:30:46.158Z,100.00
2023-02-15T06:33:12.700Z,100.00
2023-02-15T06:35:39.174Z,100.00
2023-02-15T06:38:05.673Z,100.00
2023-02-15T06:40:32.151Z,100.00
2023-02-15T06:42:58.619Z,100.00
2023-02-15T06:45:25.084Z,100.00
2023-02-15T06:47:51.552Z,100.00
2023-02-15T06:50:18.040Z,100.00
2023-02-15T06:52:44.518Z,100.00
2023-02-15T06:55:11.006Z,100.00
2023-02-15T06:57:37.580Z,100.00
2023-02-15T07:00:05.866Z,100.00
2023-02-15T07:02:34.189Z,100.00
2023-02-15T07:05:00.796Z,100.00
2023-02-15T07:07:27.336Z,100.00
2023-02-15T07:09:53.784Z,100.00
2023-02-15T07:12:38.821Z,100.00
2023-02-15T07:15:07.674Z,100.00
2023-02-15T07:17:36.285Z,100.00
2023-02-15T07:20:08.941Z,100.00
2023-02-15T07:22:37.209Z,100.00
2023-02-15T07:25:05.344Z,100.00
2023-02-15T07:27:32.957Z,100.00
2023-02-15T07:30:00.495Z,100.00
2023-02-15T07:32:30.871Z,100.00
2023-02-15T07:34:58.065Z,100.00
2023-02-15T07:37:24.805Z,100.00
2023-02-15T07:39:51.353Z,100.00
2023-02-15T07:42:18.833Z,100.00
2023-02-15T07:44:45.335Z,100.00
2023-02-15T07:47:12.998Z,100.00
2023-02-15T07:49:39.503Z,100.00
2023-02-15T07:52:06.014Z,99.87
2023-02-15T07:54:32.512Z,97.62
2023-02-15T07:56:59.005Z,95.97
2023-02-15T07:59:25.696Z,95.24
2023-02-15T08:01:53.922Z,95.58
2023-02-15T08:04:20.447Z,94.04
2023-02-15T08:06:46.977Z,92.13
2023-02-15T08:09:13.529Z,91.75
2023-02-15T08:11:43.686Z,90.79
2023-02-15T08:14:21.624Z,89.27
2023-02-15T08:16:50.629Z,88.38
2023-02-15T08:19:24.184Z,88.00
2023-02-15T08:22:00.547Z,88.02
2023-02-15T08:24:32.153Z,85.82
2023-02-15T08:26:59.463Z,83.23
2023-02-15T08:29:28.966Z,83.59
2023-02-15T08:31:59.982Z,80.94
2023-02-15T08:34:26.806Z,79.29
2023-02-15T08:36:53.330Z,78.50
2023-02-15T08:39:19.904Z,75.52
2023-02-15T08:41:48.232Z,73.84
2023-02-15T08:44:17.321Z,73.12
2023-02-15T08:46:45.798Z,72.13
2023-02-15T08:49:16.258Z,72.26
2023-02-15T08:51:43.073Z,72.23
2023-02-15T08:54:13.024Z,71.18
2023-02-15T08:56:41.542Z,70.71
2023-02-15T08:59:13.186Z,71.22
2023-02-15T09:01:40.370Z,69.09
2023-02-15T09:04:11.452Z,69.74
2023-02-15T09:06:39.665Z,68.80
2023-02-15T09:09:06.885Z,66.10
2023-02-15T09:11:39.274Z,65.74
2023-02-15T09:14:10.001Z,64.05
2023-02-15T09:16:38.728Z,66.17
2023-02-15T09:19:06.689Z,64.74
2023-02-15T09:21:36.281Z,63.67
2023-02-15T09:24:08.982Z,63.68
2023-02-15T09:26:39.047Z,60.85
2023-02-15T09:29:05.634Z,63.47
2023-02-15T09:31:35.039Z,61.08
2023-02-15T09:34:02.700Z,59.28
2023-02-15T09:36:32.456Z,61.62
2023-02-15T09:39:09.798Z,60.34
2023-02-15T09:42:01.277Z,59.23
2023-02-15T09:44:49.294Z,58.55
2023-02-15T09:47:23.721Z,57.02
2023-02-15T09:50:09.392Z,56.38
2023-02-15T09:52:54.488Z,54.62
2023-02-15T09:56:15.066Z,55.05
2023-02-15T09:58:41.700Z,54.58
2023-02-15T10:01:25.799Z,53.16
2023-02-15T10:04:20.374Z,54.30
2023-02-15T10:07:02.741Z,54.80
2023-02-15T10:10:07.600Z,53.42
2023-02-15T10:12:48.217Z,53.77
2023-02-15T10:15:52.977Z,53.51
2023-02-15T10:18:40.946Z,51.61
2023-02-15T10:21:41.294Z,50.77
2023-02-15T10:24:22.237Z,52.35
2023-02-15T10:26:49.669Z,50.96
2023-02-15T10:29:37.515Z,50.21
2023-02-15T10:32:16.532Z,49.06
2023-02-15T10:34:53.711Z,48.81
2023-02-15T10:37:47.667Z,48.93
2023-02-15T10:40:17.011Z,48.19
2023-02-15T10:42:59.266Z,47.19
2023-02-15T10:46:01.588Z,48.18
2023-02-15T10:48:52.254Z,50.74
2023-02-15T10:51:32.917Z,48.23
2023-02-15T10:54:07.054Z,46.28
2023-02-15T10:56:33.492Z,44.68
2023-02-15T10:59:11.860Z,45.23
2023-02-15T11:02:00.045Z,45.59
2023-02-15T11:04:51.377Z,46.59
2023-02-15T11:07:29.567Z,47.57
2023-02-15T11:10:06.476Z,45.63
2023-02-15T11:12:34.365Z,45.47
2023-02-15T11:15:29.298Z,46.11
2023-02-15T11:18:14.562Z,45.29
2023-02-15T11:20:58.994Z,45.12
2023-02-15T11:23:28.164Z,45.86
2023-02-15T11:25:57.803Z,45.63
2023-02-15T11:28:32.360Z,45.64
2023-02-15T11:31:02.272Z,44.63
2023-02-15T11:33:35.129Z,44.08
2023-02-15T11:36:10.494Z,44.57
2023-02-15T11:38:37.563Z,44.13
2023-02-15T11:41:12.251Z,44.52
2023-02-15T11:43:49.054Z,44.70
2023-02-15T11:46:15.918Z,44.34
2023-02-15T11:48:43.473Z,44.44
2023-02-15T11:51:15.061Z,45.08
2023-02-15T11:53:41.657Z,45.12
2023-02-15T11:56:15.573Z,44.93
2023-02-15T11:58:52.141Z,43.94
2023-02-15T12:01:45.660Z,43.63
2023-02-15T12:04:20.821Z,44.13
2023-02-15T12:07:02.898Z,44.01
2023-02-15T12:09:55.187Z,42.54
2023-02-15T12:12:30.994Z,42.12
2023-02-15T12:15:03.798Z,41.83
2023-02-15T12:17:49.233Z,42.22
2023-02-15T12:20:15.677Z,42.14
2023-02-15T12:22:53.252Z,41.39
2023-02-15T12:25:28.637Z,42.79
2023-02-15T12:27:55.921Z,40.36
2023-02-15T12:30:37.809Z,42.27
2023-02-15T12:33:18.094Z,41.57
2023-02-15T12:35:45.170Z,41.11
2023-02-15T12:38:11.598Z,42.67
2023-02-15T12:40:39.439Z,42.24
2023-02-15T12:43:11.887Z,40.73
2023-02-15T12:45:39.327Z,40.64
2023-02-15T12:48:19.459Z,40.78
2023-02-15T12:51:06.353Z,40.64
2023-02-15T12:53:36.267Z,40.14
2023-02-15T12:56:05.949Z,41.15
2023-02-15T12:58:38.233Z,40.86
2023-02-15T13:01:18.630Z,39.78
2023-02-15T13:04:07.204Z,40.67
2023-02-15T13:06:36.555Z,39.26
2023-02-15T13:09:16.267Z,41.30
2023-02-15T13:11:45.093Z,41.86
2023-02-15T13:14:23.039Z,40.65
2023-02-15T13:16:53.599Z,40.99
2023-02-15T13:19:22.814Z,40.54
2023-02-15T13:21:52.576Z,41.92
2023-02-15T13:24:24.848Z,41.69
2023-02-15T13:26:55.961Z,41.44
2023-02-15T13:29:29.178Z,41.48
2023-02-15T13:31:58.538Z,42.75
2023-02-15T13:34:31.253Z,42.53
2023-02-15T13:37:06.771Z,42.15
2023-02-15T13:39:41.774Z,41.12
2023-02-15T13:42:26.285Z,41.66
2023-02-15T13:45:18.187Z,42.35
2023-02-15T13:47:44.615Z,42.04
2023-02-15T13:50:17.016Z,41.93
2023-02-15T13:52:56.686Z,43.25
2023-02-15T13:55:51.035Z,43.35
2023-02-15T13:58:20.255Z,43.17
2023-02-15T14:00:53.008Z,44.25
2023-02-15T14:03:57.261Z,44.22
2023-02-15T14:06:59.891Z,44.64
2023-02-15T14:10:07.731Z,45.23
2023-02-15T14:12:54.885Z,44.76
2023-02-15T14:15:39.215Z,46.24
2023-02-15T14:18:20.771Z,46.17
2023-02-15T14:20:57.944Z,47.73
2023-02-15T14:23:31.850Z,48.34
2023-02-15T14:26:18.138Z,47.78
2023-02-15T14:29:11.812Z,48.46
2023-02-15T14:31:43.718Z,48.57
2023-02-15T14:34:49.667Z,48.27
2023-02-15T14:37:23.434Z,49.13
2023-02-15T14:40:17.789Z,49.82
2023-02-15T14:42:57.133Z,49.50
2023-02-15T14:45:32.630Z,50.42
2023-02-15T14:48:12.575Z,50.72
2023-02-15T14:50:45.862Z,50.69
2023-02-15T14:53:30.825Z,49.94
2023-02-15T14:56:08.983Z,50.52
2023-02-15T14:58:36.334Z,50.93
2023-02-15T15:01:11.410Z,52.25
2023-02-15T15:03:49.732Z,52.00
2023-02-15T15:06:30.014Z,52.58
2023-02-15T15:09:02.244Z,53.03
2023-02-15T15:11:41.130Z,53.62
2023-02-15T15:14:10.084Z,53.28
2023-02-15T15:16:36.707Z,53.11
2023-02-15T15:19:05.367Z,53.60
2023-02-15T15:21:49.854Z,53.64
2023-02-15T15:24:38.328Z,54.02
2023-02-15T15:27:39.025Z,54.05
2023-02-15T15:30:25.779Z,54.31
2023-02-15T15:33:00.000Z,53.57
2023-02-15T15:36:04.269Z,54.92
2023-02-15T15:38:45.834Z,54.83
2023-02-15T15:41:20.981Z,54.88
2023-02-15T15:44:08.775Z,54.61
2023-02-15T15:46:53.648Z,54.95
2023-02-15T15:49:22.354Z,54.93
2023-02-15T15:51:49.932Z,55.92
2023-02-15T15:54:19.679Z,56.52
2023-02-15T15:56:52.032Z,56.50
2023-02-15T15:59:32.182Z,56.68
2023-02-15T16:02:12.361Z,57.27
2023-02-15T16:04:38.882Z,57.26
2023-02-15T16:07:18.495Z,57.83
2023-02-15T16:10:01.882Z,57.62
2023-02-15T16:12:31.665Z,57.87
2023-02-15T16:14:59.300Z,57.23
2023-02-15T16:17:28.970Z,57.75
2023-02-15T16:20:32.673Z,58.71
2023-02-15T16:23:20.714Z,58.76
2023-02-15T16:26:33.822Z,58.54
2023-02-15T16:29:00.418Z,58.91
2023-02-15T16:31:26.942Z,59.78
2023-02-15T16:33:56.086Z,60.55
2023-02-15T16:36:27.854Z,60.88
2023-02-15T16:38:57.393Z,60.76
2023-02-15T16:41:29.489Z,60.96
2023-02-15T16:44:00.241Z,60.81
2023-02-15T16:46:34.134Z,60.52
2023-02-15T16:49:05.418Z,60.72
2023-02-15T16:51:35.130Z,61.25
2023-02-15T16:54:07.205Z,62.14
2023-02-15T16:56:34.885Z,62.80
2023-02-15T16:59:02.348Z,63.20
2023-02-15T17:01:32.077Z,63.73
2023-02-15T17:04:21.098Z,64.38
2023-02-15T17:07:18.349Z,64.59
2023-02-15T17:09:56.461Z,65.25
2023-02-15T17:12:56.241Z,65.90
2023-02-15T17:15:34.085Z,65.60
2023-02-15T17:18:08.236Z,65.80
2023-02-15T17:20:37.474Z,67.01
2023-02-15T17:23:04.893Z,67.01
2023-02-15T17:25:40.509Z,67.33
2023-02-15T17:28:18.362Z,68.14
2023-02-15T17:30:47.302Z,68.57
2023-02-15T17:33:37.829Z,68.87
2023-02-15T17:36:10.726Z,69.95
2023-02-15T17:38:39.697Z,70.26
2023-02-15T17:41:07.567Z,70.88
2023-02-15T17:43:34.995Z,71.11
2023-02-15T17:46:03.024Z,71.19
2023-02-15T17:48:37.124Z,71.46
2023-02-15T17:51:06.363Z,71.22
2023-02-15T17:53:33.494Z,71.39
2023-02-15T17:56:00.021Z,72.18
2023-02-15T17:58:27.156Z,72.42
2023-02-15T18:01:16.905Z,72.23
2023-02-15T18:04:04.203Z,73.37
2023-02-15T18:06:49.253Z,74.00
2023-02-15T18:09:37.573Z,74.19
2023-02-15T18:12:15.628Z,73.96
2023-02-15T18:14:42.136Z,75.17
2023-02-15T18:17:13.860Z,74.64
2023-02-15T18:19:42.014Z,75.24
2023-02-15T18:22:13.444Z,74.98
2023-02-15T18:24:39.962Z,74.56
2023-02-15T18:27:06.630Z,75.31
2023-02-15T18:29:33.201Z,75.27
2023-02-15T18:32:01.514Z,75.27
2023-02-15T18:34:40.595Z,75.66
2023-02-15T18:37:14.196Z,76.25
2023-02-15T18:39:46.890Z,76.32
2023-02-15T18:42:23.517Z,77.13
2023-02-15T18:44:54.362Z,76.76
2023-02-15T18:47:20.853Z,77.94
2023-02-15T18:49:48.095Z,77.52
2023-02-15T18:52:21.812Z,77.98
2023-02-15T18:54:53.173Z,78.29
2023-02-15T18:57:20.141Z,78.98
2023-02-15T18:59:46.686Z,77.73
2023-02-15T19:02:15.051Z,77.86
2023-02-15T19:04:42.125Z,77.76
2023-02-15T19:07:22.396Z,78.36
2023-02-15T19:09:52.976Z,79.16
2023-02-15T19:12:20.131Z,78.21
2023-02-15T19:14:46.942Z,79.32
2023-02-15T19:17:18.480Z,80.06
2023-02-15T19:19:46.132Z,79.21
2023-02-15T19:22:16.972Z,79.70
2023-02-15T19:24:45.884Z,79.92
2023-02-15T19:27:31.948Z,80.35
2023-02-15T19:30:07.713Z,80.92
2023-02-15T19:32:34.203Z,82.11
2023-02-15T19:35:00.645Z,81.24
2023-02-15T19:37:37.090Z,82.02
2023-02-15T19:40:05.693Z,81.92
2023-02-15T19:42:34.999Z,82.75
2023-02-15T19:45:01.555Z,82.56
2023-02-15T19:47:28.454Z,82.47
2023-02-15T19:50:00.327Z,82.26
2023-02-15T19:52:27.549Z,82.33
2023-02-15T19:54:55.357Z,82.84
2023-02-15T19:57:22.483Z,83.11
2023-02-15T19:59:49.132Z,84.10
2023-02-15T20:02:18.968Z,84.21
2023-02-15T20:04:46.260Z,85.02
2023-02-15T20:07:25.261Z,84.83
2023-02-15T20:09:52.074Z,85.16
2023-02-15T20:12:27.266Z,84.96
2023-02-15T20:14:54.098Z,85.39
2023-02-15T20:17:20.771Z,85.89
2023-02-15T20:19:47.357Z,87.26
2023-02-15T20:22:25.719Z,86.70
2023-02-15T20:24:55.622Z,87.55
2023-02-15T20:27:22.358Z,87.62
2023-02-15T20:29:50.528Z,87.75
2023-02-15T20:32:17.237Z,88.98
2023-02-15T20:34:43.823Z,88.22
2023-02-15T20:37:23.785Z,88.64
2023-02-15T20:39:51.030Z,88.62
2023-02-15T20:42:18.603Z,88.18
2023-02-15T20:44:45.078Z,88.19
2023-02-15T20:47:11.518Z,88.29
2023-02-15T20:49:38.694Z,88.21
2023-02-15T20:52:20.715Z,87.34
2023-02-15T20:54:47.366Z,87.95
2023-02-15T20:57:14.230Z,88.11
2023-02-15T20:59:41.306Z,88.09
2023-02-15T21:02:23.965Z,88.41
2023-02-15T21:04:50.566Z,87.89
2023-02-15T21:07:19.564Z,88.25
2023-02-15T21:09:47.080Z,89.10
2023-02-15T21:12:18.500Z,88.67
2023-02-15T21:14:45.741Z,89.42
2023-02-15T21:17:17.240Z,88.91
2023-02-15T21:19:44.323Z,88.74
2023-02-15T21:22:13.471Z,88.23
2023-02-15T21:24:47.368Z,88.32
2023-02-15T21:27:14.309Z,87.54
2023-02-15T21:29:40.820Z,87.83
2023-02-15T21:32:08.626Z,87.42
2023-02-15T21:34:35.526Z,87.96
2023-02-15T21:37:02.078Z,88.52
2023-02-15T21:39:30.239Z,89.10
2023-02-15T21:42:14.944Z,88.57
2023-02-15T21:44:59.733Z,87.92
2023-02-15T21:47:49.644Z,87.83
2023-02-15T21:50:40.965Z,88.14
2023-02-15T21:53:18.623Z,88.05
2023-02-15T21:55:45.095Z,88.14
2023-02-15T21:58:21.146Z,88.75
2023-02-15T22:00:49.096Z,89.10
2023-02-15T22:03:16.252Z,89.23
2023-02-15T22:05:42.769Z,89.11
2023-02-15T22:08:13.308Z,89.15
2023-02-15T22:10:40.953Z,88.30
2023-02-15T22:13:28.362Z,88.70
2023-02-15T22:15:56.044Z,88.43
2023-02-15T22:18:25.900Z,88.12
2023-02-15T22:20:53.193Z,87.70
2023-02-15T22:23:19.771Z,88.41
2023-02-15T22:25:59.040Z,88.09
2023-02-15T22:28:34.919Z,87.90
2023-02-15T22:31:03.101Z,87.33
2023-02-15T22:33:32.654Z,86.84
2023-02-15T22:36:00.209Z,86.53
2023-02-15T22:38:26.974Z,87.02
2023-02-15T22:40:56.441Z,87.04
2023-02-15T22:43:35.097Z,87.68
2023-02-15T22:46:05.384Z,87.20
2023-02-15T22:48:31.982Z,87.16
2023-02-15T22:50:58.626Z,87.11
2023-02-15T22:53:25.321Z,87.89
2023-02-15T22:55:53.428Z,87.99
2023-02-15T22:58:24.687Z,88.83
2023-02-15T23:00:51.418Z,90.25
2023-02-15T23:03:23.335Z,90.78
2023-02-15T23:05:50.293Z,91.65
2023-02-15T23:08:17.335Z,91.65
2023-02-15T23:10:55.358Z,91.59
2023-02-15T23:13:33.000Z,91.64
2023-02-15T23:16:01.808Z,92.35
2023-02-15T23:18:32.752Z,92.28
2023-02-15T23:21:02.255Z,92.39
2023-02-15T23:23:34.168Z,91.61
2023-02-15T23:26:04.133Z,91.66
2023-02-15T23:28:35.544Z,92.20
2023-02-15T23:31:02.716Z,92.30
2023-02-15T23:33:33.793Z,92.18
2023-02-15T23:36:00.318Z,92.72
2023-02-15T23:38:29.847Z,92.79
2023-02-15T23:41:21.174Z,92.70
2023-02-15T23:43:56.843Z,92.48
2023-02-15T23:46:45.349Z,92.43
2023-02-15T23:49:17.194Z,92.63
2023-02-15T23:51:47.288Z,92.67
2023-02-15T23:54:15.045Z,92.99
2023-02-15T23:56:44.205Z,92.13
2023-02-15T23:59:19.441Z,91.91
